Time;durP1;ratioP1;P1;durP2;ratioP2;P2;SDS_P1;SDS_P2;PMS_P1;PMS_P2;Temp;Humidity;BMP_temperature;BMP_pressure;BME280_temperature;BME280_humidity;BME280_pressure;Samples;Min_cycle;Max_cycle;Signal;HPM_P1;HPM_P2
2021/01/22 00:00:17;;;;;;;35.50;18.76;;;;;;;-0.80;75.36;99113.57;333834;110;1964003;-71
2021/01/22 00:01:23;;;;;;;36.39;20.63;;;;;;;-0.77;75.40;99106.14;355127;111;1965041;-72
2021/01/22 00:02:29;;;;;;;34.80;19.54;;;;;;;-0.74;75.19;99112.97;321192;111;2625936;-71
2021/01/22 00:03:34;;;;;;;33.24;19.38;;;;;;;-0.77;75.46;99113.27;336778;111;1963056;-71
2021/01/22 00:04:40;;;;;;;35.03;19.84;;;;;;;-0.78;75.46;99109.79;356654;111;1962041;-72
2021/01/22 00:05:45;;;;;;;38.79;21.06;;;;;;;-0.74;75.46;99107.67;355394;111;1961938;-72
2021/01/22 00:06:53;;;;;;;36.86;20.79;;;;;;;-0.72;75.34;99106.54;314688;111;2738881;-70
2021/01/22 00:07:58;;;;;;;35.75;21.04;;;;;;;-0.71;75.36;99107.40;343127;111;1962987;-72
2021/01/22 00:09:05;;;;;;;37.08;19.64;;;;;;;-0.68;75.21;99105.27;354707;111;1962988;-72
2021/01/22 00:10:12;;;;;;;33.67;20.97;;;;;;;-0.65;75.15;99103.31;321212;111;2948056;-71
2021/01/22 00:11:19;;;;;;;36.56;19.77;;;;;;;-0.67;75.24;99106.93;354087;111;1964038;-71
2021/01/22 00:12:25;;;;;;;33.44;19.21;;;;;;;-0.63;75.10;99104.84;356185;111;1961969;-71
2021/01/22 00:13:31;;;;;;;36.93;19.78;;;;;;;-0.59;75.00;99106.20;314637;111;2773949;-72
2021/01/22 00:14:50;;;;;;;31.93;19.02;;;;;;;-0.59;74.97;99094.75;323238;111;1962850;-71
2021/01/22 00:15:56;;;;;;;32.38;19.67;;;;;;;-0.60;75.02;99101.89;335082;112;2365922;-72
2021/01/22 00:17:01;;;;;;;32.23;18.04;;;;;;;-0.63;75.16;99099.53;333731;112;1962791;-71
2021/01/22 00:18:08;;;;;;;28.09;18.17;;;;;;;-0.57;75.18;99103.41;345406;114;1962012;-71
2021/01/22 00:19:14;;;;;;;32.18;17.72;;;;;;;-0.54;75.16;99100.45;343154;116;1961999;-72
2021/01/22 00:20:20;;;;;;;29.31;18.29;;;;;;;-0.53;75.15;99102.11;330038;114;2335976;-72
2021/01/22 00:21:25;;;;;;;37.93;19.49;;;;;;;-0.49;75.02;99101.67;347951;114;1962025;-71
2021/01/22 00:22:31;;;;;;;33.18;20.03;;;;;;;-0.43;74.90;99099.41;348839;114;1961982;-71
2021/01/22 00:23:39;;;;;;;32.52;18.39;;;;;;;-0.47;75.06;99104.19;348952;114;1962012;-71
2021/01/22 00:24:55;;;;;;;37.03;19.46;;;;;;;-0.43;74.92;99107.37;315528;114;1961952;-71
2021/01/22 00:26:00;;;;;;;34.56;18.83;;;;;;;-0.41;74.86;99102.75;352577;113;1961989;-71
2021/01/22 00:27:05;;;;;;;34.29;18.68;;;;;;;-0.35;74.76;99095.01;353306;113;1961990;-72
2021/01/22 00:28:11;;;;;;;32.75;18.67;;;;;;;-0.31;74.52;99095.56;354173;111;1962017;-71
2021/01/22 00:29:17;;;;;;;33.04;20.02;;;;;;;-0.37;74.74;99098.80;316804;108;2807982;-72
2021/01/22 00:30:24;;;;;;;36.28;20.53;;;;;;;-0.39;74.84;99095.48;373928;106;1961984;-72
2021/01/22 00:31:29;;;;;;;34.19;19.12;;;;;;;-0.35;74.71;99086.22;377088;105;1961999;-71
2021/01/22 00:32:34;;;;;;;36.47;19.26;;;;;;;-0.31;74.52;99090.26;374173;105;1962940;-71
2021/01/22 00:33:41;;;;;;;32.62;20.34;;;;;;;-0.29;74.41;99088.27;335798;108;2587068;-72
2021/01/22 00:34:47;;;;;;;37.26;21.21;;;;;;;-0.28;74.44;99095.26;353939;107;1961957;-72
2021/01/22 00:35:53;;;;;;;35.73;20.42;;;;;;;-0.32;74.38;99081.47;362029;110;1960828;-72
2021/01/22 00:36:58;;;;;;;36.23;20.57;;;;;;;-0.33;74.51;99084.26;370378;107;1961912;-71
2021/01/22 00:38:03;;;;;;;34.43;19.87;;;;;;;-0.31;74.58;99085.78;368221;107;1963970;-71
2021/01/22 00:39:09;;;;;;;34.19;20.12;;;;;;;-0.32;74.60;99083.27;369287;107;1962014;-71
2021/01/22 00:40:15;;;;;;;35.58;20.14;;;;;;;-0.30;74.70;99081.30;346528;107;1961974;-72
2021/01/22 00:41:20;;;;;;;35.72;20.37;;;;;;;-0.28;74.63;99071.37;364767;107;1961955;-72
2021/01/22 00:42:25;;;;;;;38.93;22.42;;;;;;;-0.30;74.51;99079.47;368650;107;1962991;-71
2021/01/22 00:43:31;;;;;;;36.73;20.46;;;;;;;-0.33;74.79;99069.16;368359;107;1961963;-71
2021/01/22 00:44:36;;;;;;;33.28;20.80;;;;;;;-0.31;74.79;99072.51;369183;107;1962014;-71
2021/01/22 00:45:43;;;;;;;34.69;20.59;;;;;;;-0.27;74.63;99063.24;369989;107;1962035;-71
2021/01/22 00:46:48;;;;;;;37.80;21.98;;;;;;;-0.26;74.68;99064.10;328444;107;2055185;-71
2021/01/22 00:47:54;;;;;;;34.62;21.67;;;;;;;-0.27;74.56;99052.62;366309;107;1965014;-71
2021/01/22 00:49:00;;;;;;;35.04;20.59;;;;;;;-0.39;74.72;99051.20;367076;107;1962030;-71
2021/01/22 00:50:07;;;;;;;39.67;21.96;;;;;;;-0.30;74.68;99063.55;367960;108;1961961;-72
2021/01/22 00:51:13;;;;;;;38.38;20.41;;;;;;;-0.26;74.55;99067.59;367490;109;1964977;-71
2021/01/22 00:52:19;;;;;;;43.20;22.65;;;;;;;-0.24;74.48;99056.80;366897;108;1960977;-71
2021/01/22 00:53:24;;;;;;;40.94;22.28;;;;;;;-0.28;74.51;99056.28;365891;108;1962028;-72
2021/01/22 00:54:30;;;;;;;37.78;21.04;;;;;;;-0.30;74.68;99057.41;359803;110;1961955;-72
2021/01/22 00:55:55;;;;;;;36.78;21.35;;;;;;;-0.33;74.98;99058.55;366490;107;1961956;-73
2021/01/22 00:57:02;;;;;;;39.01;20.47;;;;;;;-0.25;74.72;99061.28;364548;109;1962004;-71
2021/01/22 00:58:08;;;;;;;33.33;21.96;;;;;;;-0.22;74.56;99053.01;362296;110;1962032;-71
2021/01/22 00:59:14;;;;;;;36.13;20.73;;;;;;;-0.20;74.46;99052.04;361589;110;1961964;-71
2021/01/22 01:00:24;;;;;;;39.77;19.62;;;;;;;-0.17;74.32;99054.39;365286;108;1964004;-71
2021/01/22 01:01:35;;;;;;;34.51;19.94;;;;;;;-0.18;74.39;99055.38;328944;107;2687951;-71
2021/01/22 01:02:41;;;;;;;33.70;21.22;;;;;;;-0.26;74.82;99051.66;367828;107;1963066;-71
2021/01/22 01:03:48;;;;;;;34.56;19.46;;;;;;;-0.25;74.72;99049.84;361902;110;1961957;-71
2021/01/22 01:04:54;;;;;;;38.29;20.84;;;;;;;-0.24;74.64;99047.05;312946;110;2876003;-72
2021/01/22 01:05:59;;;;;;;34.53;20.48;;;;;;;-0.25;74.80;99049.84;351912;107;1961996;-71
2021/01/22 01:07:07;;;;;;;37.79;21.04;;;;;;;-0.24;74.89;99047.05;370158;107;1964033;-71
2021/01/22 01:08:13;;;;;;;35.12;21.51;;;;;;;-0.89;74.74;98940.30;340286;107;2492010;-71
2021/01/22 01:09:37;;;;;;;35.58;21.04;;;;;;;-0.21;74.84;99045.91;366888;107;1961944;-71
2021/01/22 01:11:01;;;;;;;40.17;21.34;;;;;;;-0.14;74.49;99046.94;369905;107;1962055;-71
2021/01/22 01:12:18;;;;;;;38.86;20.06;;;;;;;-0.18;74.71;99053.55;351968;107;1963930;-71
2021/01/22 01:13:42;;;;;;;37.54;20.22;;;;;;;-0.18;74.74;99045.59;343706;109;2299961;-72
2021/01/22 01:15:04;;;;;;;39.03;21.04;;;;;;;-0.17;74.74;99046.42;321928;109;2757015;-72
2021/01/22 01:16:13;;;;;;;;;;;;;;;-0.15;74.72;99042.63;367248;109;1961080;-72
2021/01/22 01:17:18;;;;;;;35.59;19.06;;;;;;;-0.13;74.88;99038.02;361724;110;1961022;-71
2021/01/22 01:18:26;;;;;;;35.69;19.89;;;;;;;-0.17;74.81;99041.94;363690;109;1961982;-71
2021/01/22 01:19:31;;;;;;;34.36;19.42;;;;;;;-0.13;74.96;99039.80;364613;109;1962816;-72
2021/01/22 01:20:39;;;;;;;35.44;18.35;;;;;;;-0.05;74.62;99038.08;355369;111;1963966;-72
2021/01/22 01:21:45;;;;;;;34.92;19.45;;;;;;;-0.03;74.52;99035.25;309408;111;2738893;-71
2021/01/22 01:22:51;;;;;;;38.76;19.44;;;;;;;-0.08;74.81;99025.11;363865;109;1962052;-71
2021/01/22 01:23:57;;;;;;;36.83;20.56;;;;;;;-0.03;74.52;99032.59;365426;110;1964944;-71
2021/01/22 01:25:05;;;;;;;35.68;21.03;;;;;;;-0.04;74.61;99034.42;363466;109;1962014;-71
2021/01/22 01:26:11;;;;;;;36.74;21.09;;;;;;;-0.02;74.58;99031.63;363595;109;1962016;-71
2021/01/22 01:27:17;;;;;;;36.07;19.64;;;;;;;0.04;74.41;99033.66;357828;111;1962989;-71
2021/01/22 01:28:23;;;;;;;35.85;19.84;;;;;;;0.06;74.27;99034.34;317277;109;2842940;-71
2021/01/22 01:29:28;;;;;;;36.52;20.10;;;;;;;0.02;74.39;99037.45;336140;110;1961995;-71
2021/01/22 01:30:35;;;;;;;35.27;20.07;;;;;;;0.02;74.38;99038.28;364032;109;1961995;-71
2021/01/22 01:31:40;;;;;;;36.89;21.63;;;;;;;0.04;74.46;99033.66;361936;109;1961897;-72
2021/01/22 01:32:46;;;;;;;36.06;22.14;;;;;;;0.08;74.51;99037.69;363788;110;1962019;-72
2021/01/22 01:33:52;;;;;;;39.26;22.68;;;;;;;0.09;74.31;99035.86;345578;109;2262041;-71
2021/01/22 01:34:58;;;;;;;38.49;22.19;;;;;;;0.06;74.45;99029.03;349174;104;1961264;-71
2021/01/22 01:36:04;;;;;;;39.64;22.31;;;;;;;0.05;74.47;99035.31;369019;108;1962933;-72
2021/01/22 01:37:10;;;;;;;39.42;22.56;;;;;;;0.08;74.63;99032.37;367062;108;1961984;-71
2021/01/22 01:38:16;;;;;;;40.49;21.64;;;;;;;0.14;74.46;99021.12;341589;108;2239033;-71
2021/01/22 01:39:21;;;;;;;40.39;23.47;;;;;;;0.14;74.36;99017.64;350524;110;1962945;-71
2021/01/22 01:40:28;;;;;;;39.39;22.60;;;;;;;0.07;74.56;99017.41;363030;110;1960932;-71
2021/01/22 01:41:34;;;;;;;39.49;20.41;;;;;;;0.14;74.38;99020.30;361483;110;1961990;-71
2021/01/22 01:42:40;;;;;;;39.49;22.47;;;;;;;0.16;74.34;99015.64;350004;110;2220684;-72
2021/01/22 01:43:46;;;;;;;39.05;21.16;;;;;;;0.21;74.11;99016.01;357461;110;1960747;-72
2021/01/22 01:44:51;;;;;;;36.31;20.46;;;;;;;0.10;74.11;98995.02;364203;110;1960889;-71
2021/01/22 01:45:58;;;;;;;36.94;21.93;;;;;;;0.21;74.04;99008.03;361439;110;1965138;-71
2021/01/22 01:47:04;;;;;;;39.98;21.64;;;;;;;0.22;73.94;99009.72;362075;110;1962994;-72
2021/01/22 01:48:11;;;;;;;42.43;22.85;;;;;;;0.23;73.82;99007.89;362871;110;1962948;-71
2021/01/22 01:49:16;;;;;;;40.95;22.07;;;;;;;0.19;73.77;99002.90;362958;110;1963984;-72
2021/01/22 01:50:23;;;;;;;38.18;21.68;;;;;;;0.18;73.99;99005.70;362415;110;1961934;-71
2021/01/22 01:51:29;;;;;;;37.45;20.43;;;;;;;0.18;73.97;99008.36;342489;110;2337993;-71
2021/01/22 01:52:34;;;;;;;40.22;21.33;;;;;;;0.16;73.99;99005.02;363619;110;1961955;-71
2021/01/22 01:53:40;;;;;;;37.82;22.54;;;;;;;0.14;74.17;98996.39;364191;108;1961965;-71
2021/01/22 01:54:47;;;;;;;38.06;21.74;;;;;;;0.18;74.00;98997.73;363123;110;1960950;-72
2021/01/22 01:55:52;;;;;;;36.64;21.53;;;;;;;0.14;74.13;98996.39;342673;110;2330930;-72
2021/01/22 01:56:58;;;;;;;39.13;20.90;;;;;;;0.16;74.14;98986.42;344090;112;1962078;-72
2021/01/22 01:58:05;;;;;;;39.96;22.91;;;;;;;0.14;74.27;98988.42;356253;112;1962906;-71
2021/01/22 01:59:10;;;;;;;44.70;22.72;;;;;;;0.18;74.18;98987.11;360745;110;1961985;-71
2021/01/22 02:00:17;;;;;;;40.17;20.22;;;;;;;0.16;74.20;98978.45;326634;110;1961908;-71
2021/01/22 02:01:26;;;;;;;42.52;22.86;;;;;;;0.20;74.17;98972.69;366554;110;1962021;-72
2021/01/22 02:02:31;;;;;;;39.36;21.91;;;;;;;0.24;73.97;98969.70;344439;110;1961963;-71
2021/01/22 02:03:36;;;;;;;40.01;22.77;;;;;;;0.20;74.05;98995.76;363554;110;1963067;-72
2021/01/22 02:04:42;;;;;;;36.85;20.32;;;;;;;0.21;74.02;99003.59;364135;110;1962021;-72
2021/01/22 02:05:48;;;;;;;37.81;21.22;;;;;;;0.23;73.96;98999.92;360901;110;1962993;-72
2021/01/22 02:06:54;;;;;;;42.13;22.72;;;;;;;0.25;73.92;98995.30;324252;110;2695930;-71
2021/01/22 02:08:01;;;;;;;44.45;22.61;;;;;;;0.23;73.95;98994.61;352439;110;1962003;-72
2021/01/22 02:09:07;;;;;;;43.85;24.63;;;;;;;0.18;74.19;98997.73;361193;110;1961907;-71
2021/01/22 02:10:15;;;;;;;40.56;22.37;;;;;;;0.18;74.19;99014.49;325966;110;2661896;-72
2021/01/22 02:11:21;;;;;;;39.23;23.42;;;;;;;0.20;74.14;99007.21;360507;110;1962994;-71
2021/01/22 02:12:27;;;;;;;39.54;21.61;;;;;;;0.17;74.30;99002.22;363324;110;1961894;-71
2021/01/22 02:13:35;;;;;;;41.73;23.37;;;;;;;0.17;74.35;98996.91;319277;110;2769907;-71
2021/01/22 02:14:41;;;;;;;40.93;22.96;;;;;;;0.19;74.39;99002.90;362536;110;1962036;-71
2021/01/22 02:15:47;;;;;;;38.68;20.84;;;;;;;0.17;74.57;98996.91;362914;110;1961942;-71
2021/01/22 02:16:54;;;;;;;35.58;20.81;;;;;;;0.19;74.49;98994.10;339626;110;2390035;-71
2021/01/22 02:18:01;;;;;;;41.37;22.24;;;;;;;0.17;74.49;98999.56;364206;110;1962051;-71
2021/01/22 02:19:09;;;;;;;40.24;24.26;;;;;;;0.26;74.23;98994.30;336998;110;2453246;-71
2021/01/22 02:20:34;;;;;;;46.57;24.06;;;;;;;0.27;74.14;98995.98;364372;110;1960951;-71
2021/01/22 02:21:40;;;;;;;37.79;21.82;;;;;;;0.28;74.11;99001.13;361886;110;1963003;-71
2021/01/22 02:22:46;;;;;;;39.93;22.26;;;;;;;0.23;74.14;98995.44;346567;110;2222011;-71
2021/01/22 02:24:00;;;;;;;41.36;21.34;;;;;;;0.25;74.25;98992.64;338631;110;1964976;-71
2021/01/22 02:25:10;;;;;;;41.38;20.90;;;;;;;0.26;74.28;98995.13;323331;110;2040481;-73
2021/01/22 02:26:30;;;;;;;37.73;19.95;;;;;;;0.31;73.97;98992.01;363327;110;1962986;-72
2021/01/22 02:27:37;;;;;;;41.28;22.48;;;;;;;0.34;73.87;98986.38;319084;110;2072199;-72
2021/01/22 02:28:46;;;;;;;37.44;20.06;;;;;;;0.32;73.81;98996.31;363827;110;1962883;-72
2021/01/22 02:29:54;;;;;;;39.02;19.58;;;;;;;0.35;73.75;98998.69;363069;110;1961891;-71
2021/01/22 02:30:59;;;;;;;40.89;21.53;;;;;;;0.32;73.81;98994.52;325673;110;2231952;-72
2021/01/22 02:32:08;;;;;;;38.74;20.52;;;;;;;0.32;73.78;98988.34;364745;110;1962018;-71
2021/01/22 02:33:16;;;;;;;38.95;21.12;;;;;;;0.33;73.83;98988.20;323492;110;2689012;-71
2021/01/22 02:34:28;;;;;;;39.10;20.28;;;;;;;0.33;73.85;98990.03;364967;110;1962002;-71
2021/01/22 02:35:35;;;;;;;43.31;22.19;;;;;;;0.32;74.00;98980.37;352596;109;1962008;-72
2021/01/22 02:36:44;;;;;;;40.83;20.92;;;;;;;0.34;73.97;98981.89;363684;109;1961941;-71
2021/01/22 02:37:51;;;;;;;39.24;22.02;;;;;;;0.38;73.87;98977.11;364833;109;1961918;-72
2021/01/22 02:39:03;;;;;;;47.62;23.89;;;;;;;0.38;73.82;98971.80;332882;109;2519066;-71
2021/01/22 02:40:12;;;;;;;37.03;21.52;;;;;;;0.41;73.63;98974.96;365385;109;1961975;-71
2021/01/22 02:41:20;;;;;;;39.52;21.74;;;;;;;0.42;73.52;98965.16;327996;109;1997427;-71
2021/01/22 02:42:28;;;;;;;41.16;22.55;;;;;;;0.41;73.54;98972.30;313330;109;2229995;-71
2021/01/22 02:43:35;;;;;;;36.97;20.32;;;;;;;0.39;73.67;98976.11;365139;109;1961958;-71
2021/01/22 02:44:43;;;;;;;37.87;22.32;;;;;;;0.36;73.80;98979.09;365947;109;1962948;-71
2021/01/22 02:45:50;;;;;;;41.91;22.87;;;;;;;0.36;73.86;98971.12;364456;109;1963045;-71
2021/01/22 02:47:00;;;;;;;39.28;21.09;;;;;;;0.37;73.93;98975.43;328143;109;1988114;-71
2021/01/22 02:48:07;;;;;;;39.08;22.16;;;;;;;0.34;74.00;98973.92;339328;109;1962043;-71
2021/01/22 02:49:12;;;;;;;38.75;20.31;;;;;;;0.36;73.95;98974.60;364649;109;1962941;-71
2021/01/22 02:50:25;;;;;;;38.95;21.56;;;;;;;0.36;74.04;98968.46;365763;109;1961967;-71
2021/01/22 02:51:30;;;;;;;38.28;22.71;;;;;;;0.32;74.05;98964.44;344092;109;1964006;-72
2021/01/22 02:52:36;;;;;;;34.49;20.26;;;;;;;0.34;74.17;98963.30;364506;109;1961914;-72
2021/01/22 02:53:43;;;;;;;38.33;22.77;;;;;;;0.38;74.07;98958.52;364875;109;1962066;-71
2021/01/22 02:54:50;;;;;;;34.54;20.55;;;;;;;0.38;74.12;98956.69;326921;109;2669993;-71
2021/01/22 02:55:56;;;;;;;35.49;21.27;;;;;;;0.39;74.03;98961.00;365694;109;1963962;-71
2021/01/22 02:57:25;;;;;;;36.82;20.37;;;;;;;0.41;74.03;98963.51;364812;109;1961987;-71
2021/01/22 02:58:34;;;;;;;34.64;20.02;;;;;;;0.43;73.88;98959.70;364040;109;1961934;-71
2021/01/22 02:59:47;;;;;;;37.64;21.19;;;;;;;0.38;73.96;98962.00;366103;109;1961923;-71
2021/01/22 03:00:56;;;;;;;38.03;20.88;;;;;;;0.41;73.94;98958.19;327218;109;2227033;-71
2021/01/22 03:02:21;;;;;;;37.79;20.22;;;;;;;0.40;74.05;98961.86;320471;109;2888018;-71
2021/01/22 03:03:46;;;;;;;32.08;18.93;;;;;;;0.40;73.94;98965.34;331273;112;2427061;-71
2021/01/22 03:04:54;;;;;;;31.11;18.69;;;;;;;0.36;74.20;98961.31;304136;114;2140066;-71
2021/01/22 03:06:02;;;;;;;34.53;19.76;;;;;;;0.43;74.00;98964.19;361361;109;1964979;-71
2021/01/22 03:07:11;;;;;;;35.53;19.58;;;;;;;0.47;73.78;98964.70;364560;109;1963029;-72
2021/01/22 03:08:19;;;;;;;36.14;21.32;;;;;;;0.44;73.74;98961.36;333725;109;1962145;-71
2021/01/22 03:09:29;;;;;;;39.86;22.01;;;;;;;0.42;73.74;98958.05;315596;109;2129529;-71
2021/01/22 03:10:38;;;;;;;36.09;20.03;;;;;;;0.43;73.89;98957.05;331909;109;1961933;-72
2021/01/22 03:11:48;;;;;;;42.71;24.33;;;;;;;0.45;73.77;98962.22;365484;109;1962017;-71
2021/01/22 03:12:56;;;;;;;42.35;22.57;;;;;;;0.41;73.94;98958.19;356260;111;1961950;-71
2021/01/22 03:14:04;;;;;;;41.09;21.18;;;;;;;0.36;74.09;98948.03;355286;108;1960602;-71
2021/01/22 03:15:10;;;;;;;39.39;20.66;;;;;;;0.43;73.97;98964.19;329176;110;2225030;-71
2021/01/22 03:16:18;;;;;;;40.67;23.82;;;;;;;0.46;73.83;98953.23;355722;111;1961994;-71
2021/01/22 03:17:24;;;;;;;41.73;22.30;;;;;;;0.47;73.80;98957.55;330761;113;2346094;-71
2021/01/22 03:18:29;;;;;;;41.69;22.84;;;;;;;0.48;73.68;98948.61;354266;111;1961991;-71
2021/01/22 03:19:47;;;;;;;40.31;21.22;;;;;;;0.41;73.99;98945.73;351859;115;1962028;-72
2021/01/22 03:20:53;;;;;;;41.27;22.22;;;;;;;0.43;73.99;98932.30;318814;112;2561989;-71
2021/01/22 03:21:58;;;;;;;40.92;24.37;;;;;;;0.40;74.09;98945.91;321579;112;1962095;-71
2021/01/22 03:23:04;;;;;;;36.66;20.75;;;;;;;0.36;74.20;98942.72;346749;114;1963108;-72
2021/01/22 03:24:09;;;;;;;34.23;19.73;;;;;;;0.41;74.23;98945.73;342203;117;1961983;-71
2021/01/22 03:25:16;;;;;;;36.20;19.71;;;;;;;0.45;73.98;98946.27;345205;117;1962016;-72
2021/01/22 03:26:22;;;;;;;41.48;22.07;;;;;;;0.47;73.97;98948.75;330059;117;2254011;-72
2021/01/22 03:27:27;;;;;;;34.19;19.16;;;;;;;0.46;74.05;98947.09;320623;117;1961950;-71
2021/01/22 03:28:32;;;;;;;37.58;21.60;;;;;;;0.48;74.01;98956.58;343673;115;1961924;-71
2021/01/22 03:29:37;;;;;;;38.35;20.30;;;;;;;0.43;74.21;98962.36;345439;117;1961966;-71
2021/01/22 03:30:44;;;;;;;38.04;21.51;;;;;;;0.44;74.35;98964.02;347428;117;1962085;-71
2021/01/22 03:31:50;;;;;;;38.99;20.70;;;;;;;0.46;74.45;98955.07;309917;116;2648073;-72
2021/01/22 03:33:07;;;;;;;39.97;19.12;;;;;;;0.53;74.12;98956.94;326189;115;1961932;-73
2021/01/22 03:34:14;;;;;;;34.16;20.03;;;;;;;0.57;73.90;98952.95;365908;109;1962014;-72
2021/01/22 03:35:20;;;;;;;37.35;20.14;;;;;;;0.56;73.79;98956.61;332056;108;2912006;-72
2021/01/22 03:36:26;;;;;;;37.94;20.94;;;;;;;0.56;73.80;98951.30;364162;108;1962060;-71
2021/01/22 03:37:31;;;;;;;35.77;21.02;;;;;;;0.53;73.80;98943.66;364304;108;1960771;-72
2021/01/22 03:38:37;;;;;;;38.94;21.02;;;;;;;0.54;73.81;98945.30;362735;109;1960919;-71
2021/01/22 03:39:43;;;;;;;38.44;22.03;;;;;;;0.53;73.92;98942.80;362102;111;1960845;-71
2021/01/22 03:40:50;;;;;;;33.49;18.46;;;;;;;0.57;73.72;98942.32;362034;111;1961980;-72
2021/01/22 03:41:55;;;;;;;34.91;19.79;;;;;;;0.56;73.61;98945.98;361937;111;1963021;-72
2021/01/22 03:43:01;;;;;;;36.92;19.93;;;;;;;0.57;73.62;98942.32;361545;109;1961951;-71
2021/01/22 03:44:07;;;;;;;35.76;20.03;;;;;;;0.57;73.72;98944.98;349597;113;1961980;-71
2021/01/22 03:45:14;;;;;;;34.82;19.45;;;;;;;0.54;73.82;98939.98;324228;109;2670972;-72
2021/01/22 03:46:20;;;;;;;34.48;20.03;;;;;;;0.55;73.85;98948.79;356714;113;1964015;-71
2021/01/22 03:47:26;;;;;;;35.64;19.47;;;;;;;0.56;73.83;98947.81;352477;112;1962000;-72
2021/01/22 03:48:32;;;;;;;33.94;20.71;;;;;;;0.54;73.93;98950.62;333728;110;2500902;-70
2021/01/22 03:49:37;;;;;;;36.38;19.59;;;;;;;0.52;74.12;98949.94;347043;109;1961022;-71
2021/01/22 03:50:43;;;;;;;40.23;22.60;;;;;;;0.58;74.02;98959.09;362441;111;1960787;-71
2021/01/22 03:51:48;;;;;;;37.69;20.07;;;;;;;0.58;74.02;98961.75;363794;111;1962074;-71
2021/01/22 03:52:54;;;;;;;35.41;19.93;;;;;;;0.61;73.94;98956.97;363286;110;1961851;-72
2021/01/22 03:54:00;;;;;;;35.89;18.89;;;;;;;0.67;73.71;98955.49;362370;109;1961850;-71
2021/01/22 03:55:07;;;;;;;34.26;20.17;;;;;;;0.63;73.66;98956.79;326133;110;2647003;-71
2021/01/22 03:56:14;;;;;;;33.59;18.24;;;;;;;0.62;73.70;98949.83;362499;110;1962058;-71
2021/01/22 03:57:20;;;;;;;36.42;19.87;;;;;;;0.63;73.58;98946.98;325403;111;2633987;-71
2021/01/22 03:58:25;;;;;;;35.26;19.50;;;;;;;0.60;73.67;98957.94;328897;111;1961023;-71
2021/01/22 03:59:30;;;;;;;37.66;21.27;;;;;;;0.60;73.76;98954.46;343959;111;1961989;-72
2021/01/22 04:00:37;;;;;;;38.34;23.30;;;;;;;0.62;73.75;98969.25;361660;111;1961914;-72
2021/01/22 04:01:43;;;;;;;36.66;21.54;;;;;;;0.65;73.58;98955.64;360906;111;1961964;-72
2021/01/22 04:02:49;;;;;;;36.58;22.54;;;;;;;0.61;73.65;98956.14;322184;111;2686062;-72
2021/01/22 04:03:55;;;;;;;41.37;22.52;;;;;;;0.62;73.73;98955.97;361280;109;1965013;-70
2021/01/22 04:05:00;;;;;;;35.71;20.59;;;;;;;0.62;73.76;98957.80;362836;111;1961957;-72
2021/01/22 04:06:07;;;;;;;37.57;22.18;;;;;;;0.60;73.83;98955.28;363171;111;1961946;-72
2021/01/22 04:07:13;;;;;;;36.26;21.78;;;;;;;0.63;73.89;98954.96;309850;111;2186179;-71
2021/01/22 04:08:18;;;;;;;34.08;19.12;;;;;;;0.68;73.81;98958.98;361784;111;1961978;-71
2021/01/22 04:09:24;;;;;;;36.16;20.22;;;;;;;0.66;73.75;98956.47;362286;111;1962904;-71
2021/01/22 04:10:30;;;;;;;36.17;20.98;;;;;;;0.64;73.78;98958.48;364148;111;1960882;-72
2021/01/22 04:11:36;;;;;;;39.58;21.28;;;;;;;0.61;73.98;98954.31;362783;111;1960778;-72
2021/01/22 04:12:42;;;;;;;40.19;22.29;;;;;;;0.67;73.92;98946.70;318838;111;2780908;-72
2021/01/22 04:13:48;;;;;;;37.83;20.83;;;;;;;0.68;73.77;98946.52;362589;111;1960851;-72
2021/01/22 04:14:54;;;;;;;35.39;19.86;;;;;;;0.71;73.80;98945.36;361016;111;1962931;-71
2021/01/22 04:16:00;;;;;;;37.96;19.48;;;;;;;0.70;73.77;98949.85;360890;111;1961983;-71
2021/01/22 04:17:06;;;;;;;34.71;21.77;;;;;;;0.75;73.60;98938.75;344993;109;2267929;-71
2021/01/22 04:18:11;;;;;;;33.62;20.38;;;;;;;0.72;73.42;98945.22;347474;110;1965241;-71
2021/01/22 04:19:17;;;;;;;34.84;20.51;;;;;;;0.69;73.57;98950.86;361946;111;1961985;-71
2021/01/22 04:20:24;;;;;;;32.19;18.52;;;;;;;0.69;73.73;98950.00;361324;111;1961008;-72
2021/01/22 04:21:30;;;;;;;37.04;21.67;;;;;;;0.64;73.84;98939.88;324862;108;2234942;-71
2021/01/22 04:22:35;;;;;;;36.19;20.17;;;;;;;0.70;73.76;98939.22;343300;111;1961960;-72
2021/01/22 04:23:41;;;;;;;37.38;20.38;;;;;;;0.70;73.68;98939.22;361055;111;1962004;-71
2021/01/22 04:24:46;;;;;;;36.76;21.39;;;;;;;0.71;73.72;98937.39;364287;111;1960891;-71
2021/01/22 04:25:52;;;;;;;34.97;20.67;;;;;;;0.71;73.83;98940.05;361820;111;1961965;-71
2021/01/22 04:26:58;;;;;;;34.20;19.98;;;;;;;0.71;73.88;98940.05;362732;111;1962045;-71
2021/01/22 04:28:04;;;;;;;37.06;20.25;;;;;;;0.74;73.71;98940.58;337716;112;2284935;-71
2021/01/22 04:29:09;;;;;;;37.08;21.89;;;;;;;0.77;73.77;98940.25;359848;111;1961068;-72
2021/01/22 04:30:16;;;;;;;34.32;19.81;;;;;;;0.77;73.63;98937.59;363313;110;1961929;-71
2021/01/22 04:31:22;;;;;;;32.58;19.97;;;;;;;0.77;73.52;98934.94;362436;111;1961973;-71
2021/01/22 04:32:28;;;;;;;38.96;21.51;;;;;;;0.77;73.63;98934.11;336154;110;2437995;-72
2021/01/22 04:33:33;;;;;;;32.98;20.36;;;;;;;0.78;73.56;98931.27;346156;111;1962987;-71
2021/01/22 04:34:39;;;;;;;36.57;20.35;;;;;;;0.68;73.62;98924.42;361595;111;1964044;-72
2021/01/22 04:35:44;;;;;;;35.78;19.95;;;;;;;0.79;73.60;98935.58;361699;111;1961982;-71
2021/01/22 04:36:51;;;;;;;33.96;20.18;;;;;;;0.79;73.48;98938.24;362108;111;1961937;-71
2021/01/22 04:37:57;;;;;;;38.02;20.46;;;;;;;0.79;73.54;98940.07;320609;109;2722026;-71
2021/01/22 04:39:04;;;;;;;34.86;18.88;;;;;;;0.81;73.46;98936.27;338352;111;1961952;-71
2021/01/22 04:40:11;;;;;;;36.65;21.02;;;;;;;0.83;73.43;98936.94;363677;111;1962908;-71
2021/01/22 04:41:17;;;;;;;39.81;20.32;;;;;;;0.84;73.31;98935.11;362495;111;1962044;-71
2021/01/22 04:42:22;;;;;;;37.14;21.22;;;;;;;0.82;73.37;98931.77;361652;111;1961949;-71
2021/01/22 04:43:27;;;;;;;35.44;20.92;;;;;;;0.83;73.30;98934.28;361494;109;1961997;-71
2021/01/22 04:44:34;;;;;;;34.20;22.21;;;;;;;0.84;73.30;98937.77;362870;110;1961968;-72
2021/01/22 04:45:40;;;;;;;37.52;21.13;;;;;;;0.83;73.30;98946.75;344978;110;2257032;-71
2021/01/22 04:46:45;;;;;;;39.21;21.28;;;;;;;0.84;73.38;98940.42;347187;109;1962919;-71
2021/01/22 04:47:52;;;;;;;37.78;22.42;;;;;;;0.81;73.29;98938.92;361539;111;1961930;-71
2021/01/22 04:48:58;;;;;;;39.63;22.03;;;;;;;0.82;73.40;98942.41;361324;111;1962036;-71
2021/01/22 04:50:17;;;;;;;34.98;19.07;;;;;;;0.83;73.40;98941.43;362603;109;1961909;-72
2021/01/22 04:51:24;;;;;;;39.30;21.30;;;;;;;0.83;73.51;98933.45;365594;109;1961892;-72
2021/01/22 04:52:32;;;;;;;38.34;21.68;;;;;;;0.83;73.43;98920.98;362082;110;1961934;-72
2021/01/22 04:53:40;;;;;;;44.32;23.67;;;;;;;0.85;73.43;98923.50;361258;110;1962106;-71
2021/01/22 04:54:48;;;;;;;38.81;22.05;;;;;;;0.80;73.59;98923.97;347563;115;1961966;-71
2021/01/22 04:55:56;;;;;;;38.58;21.24;;;;;;;0.81;73.60;98936.27;319343;110;2031229;-72
2021/01/22 04:57:04;;;;;;;38.43;21.72;;;;;;;0.83;73.54;98928.96;359244;111;1961955;-71
2021/01/22 04:58:11;;;;;;;41.29;23.58;;;;;;;0.84;73.59;98932.45;359207;110;1961937;-71
2021/01/22 04:59:24;;;;;;;44.07;23.59;;;;;;;0.82;73.65;98937.09;323868;112;2609025;-73
2021/01/22 05:00:31;;;;;;;42.22;24.03;;;;;;;0.82;73.75;98931.77;362332;110;1961974;-71
2021/01/22 05:01:37;;;;;;;43.39;24.64;;;;;;;0.80;73.87;98933.78;328594;112;2240000;-70
2021/01/22 05:02:43;;;;;;;38.86;22.74;;;;;;;0.86;73.64;98938.44;358991;112;1961986;-71
2021/01/22 05:03:49;;;;;;;39.67;21.60;;;;;;;0.85;73.75;98939.45;358992;112;1962065;-72
2021/01/22 05:04:57;;;;;;;40.76;23.18;;;;;;;0.91;73.70;98948.60;333480;112;2451947;-72